OISL

Larestan International Airport

Airport
ICAO code
OISL
IATA Code
LRR
Summary
ICAO Region
MID
ICAO Territory
Location

Lar, Fars Province

Serving
Lar
Elevation
2625 ft
Coordinates
27° 40' 10" N , 54° 22' 58" E
KCC
Metar
Observation
OISL 041500Z 25008KT CAVOK 20/08 Q1016 A3000 NOSIG
Station
Lar
Date/Time
2022-12-04 15:00:00
Wind direction
250°
Wind speed
08 kts
Lowest cloud amount
clouds and visibility OK
Temperature
20°C
Dew point
8°C
Humidity
45%
QNH
1016 hPa
Weather condition
n/a

Airport serving the city of Las, Iran.

Climatology

Warm Desert climate (Köppen climate classification BWh).

Runways

Designator Length Width Surface Rops
9/27 3150 45 ASP No/No

Airport map

Aerial View

SKYbrary Partners:

Safety knowledge contributed by: